Time;durP1;ratioP1;P1;durP2;ratioP2;P2;SDS_P1;SDS_P2;PMS_P1;PMS_P2;Temp;Humidity;BMP_temperature;BMP_pressure;BME280_temperature;BME280_humidity;BME280_pressure;Samples;Min_cycle;Max_cycle;Signal;HPM_P1;HPM_P2
2023/01/13 00:02:22;;;;;;;28.60;4.85;;;8.60;91.80;;;;;;5110544;28;20396;-89
2023/01/13 00:04:47;;;;;;;25.13;4.47;;;8.60;92.30;;;;;;5092967;28;20913;-90
2023/01/13 00:07:13;;;;;;;27.83;4.30;;;8.50;92.20;;;;;;5093796;28;20487;-89
2023/01/13 00:09:38;;;;;;;30.67;4.57;;;8.50;92.30;;;;;;5093325;28;20439;-89
2023/01/13 00:12:05;;;;;;;26.38;4.88;;;8.50;92.50;;;;;;5093757;28;20992;-90
2023/01/13 00:14:35;;;;;;;27.37;4.83;;;8.40;92.60;;;;;;5110189;28;20428;-89
2023/01/13 00:17:02;;;;;;;30.45;5.40;;;8.40;92.80;;;;;;5092744;28;20908;-89
2023/01/13 00:19:28;;;;;;;28.53;4.80;;;8.40;92.90;;;;;;5094257;28;20396;-89
2023/01/13 00:21:53;;;;;;;31.77;5.27;;;8.40;93.20;;;;;;5109416;28;20396;-90
2023/01/13 00:24:19;;;;;;;28.30;4.73;;;8.30;93.30;;;;;;5111375;28;20997;-90
2023/01/13 00:26:45;;;;;;;33.45;5.57;;;8.30;92.90;;;;;;5093103;28;20396;-88
2023/01/13 00:29:10;;;;;;;32.27;5.30;;;8.20;93.10;;;;;;5093371;28;20407;-90
2023/01/13 00:31:36;;;;;;;31.87;5.30;;;8.20;93.20;;;;;;5093189;28;20411;-91
2023/01/13 00:34:02;;;;;;;32.63;5.45;;;8.20;93.30;;;;;;5110204;28;20424;-89
2023/01/13 00:36:29;;;;;;;28.75;5.43;;;8.10;93.40;;;;;;5093446;28;20400;-90
2023/01/13 00:38:56;;;;;;;31.27;5.57;;;8.10;93.10;;;;;;5092573;28;20499;-89
2023/01/13 00:41:23;;;;;;;33.53;5.13;;;8.10;93.60;;;;;;5093642;28;20507;-90
2023/01/13 00:43:49;;;;;;;31.50;6.18;;;8.10;93.60;;;;;;5092332;28;20431;-90
2023/01/13 00:46:18;;;;;;;36.40;6.03;;;8.10;93.40;;;;;;5093247;28;20485;-89
2023/01/13 00:48:46;;;;;;;31.23;5.82;;;8.00;93.50;;;;;;5092654;28;22956;-90
2023/01/13 00:51:15;;;;;;;35.30;6.50;;;8.00;93.60;;;;;;5093238;28;20396;-88
2023/01/13 00:53:44;;;;;;;36.78;6.10;;;8.00;93.60;;;;;;5092671;28;20424;-88
2023/01/13 00:56:15;;;;;;;31.88;5.63;;;8.00;93.50;;;;;;5109499;28;20425;-89
2023/01/13 00:58:43;;;;;;;33.27;5.43;;;7.90;93.40;;;;;;5093375;28;20902;-91
2023/01/13 01:01:16;;;;;;;30.92;5.82;;;7.90;93.50;;;;;;5092847;28;20884;-89
2023/01/13 01:03:41;;;;;;;33.55;5.82;;;7.90;93.60;;;;;;5093811;28;20875;-89
2023/01/13 01:06:14;;;;;;;30.83;5.73;;;7.80;93.30;;;;;;5109205;28;20420;-89
2023/01/13 01:08:41;;;;;;;33.20;5.83;;;7.80;93.50;;;;;;5109288;28;21020;-89
2023/01/13 01:11:09;;;;;;;32.58;6.18;;;7.80;93.00;;;;;;5089073;28;20441;-89
2023/01/13 01:13:36;;;;;;;37.80;5.73;;;7.80;93.00;;;;;;5089421;28;20465;-89
2023/01/13 01:16:07;;;;;;;28.92;5.20;;;7.80;92.80;;;;;;5090195;28;20412;-89
2023/01/13 01:18:37;;;;;;;34.22;6.15;;;7.80;92.80;;;;;;5088413;28;20501;-89
2023/01/13 01:21:04;;;;;;;35.80;5.95;;;7.80;92.60;;;;;;5089803;28;20740;-89
2023/01/13 01:23:31;;;;;;;32.33;6.20;;;7.80;92.80;;;;;;5089126;28;20480;-90
2023/01/13 01:26:11;;;;;;;33.70;6.07;;;7.80;92.80;;;;;;5089828;28;20809;-89
2023/01/13 01:28:37;;;;;;;29.63;5.68;;;7.70;92.90;;;;;;5089515;28;21237;-89
2023/01/13 01:31:08;;;;;;;34.53;6.50;;;7.70;92.90;;;;;;5088817;28;20392;-89
2023/01/13 01:33:33;;;;;;;34.17;5.40;;;7.70;92.90;;;;;;5089322;28;20436;-90
2023/01/13 01:36:00;;;;;;;36.42;6.32;;;7.70;93.30;;;;;;5088727;28;20407;-90
2023/01/13 01:38:26;;;;;;;31.83;5.55;;;7.70;93.30;;;;;;5090224;28;20781;-89
2023/01/13 01:40:51;;;;;;;36.40;6.57;;;7.60;93.20;;;;;;5088692;28;20414;-89
2023/01/13 01:46:05;;;;;;;32.43;6.10;;;7.60;93.10;;;;;;5105739;28;20924;-88
2023/01/13 01:48:41;;;;;;;34.03;6.43;;;7.60;93.20;;;;;;5105938;28;20779;-90
2023/01/13 01:51:11;;;;;;;32.47;5.95;;;7.70;93.10;;;;;;5106766;28;20779;-90
2023/01/13 01:53:37;;;;;;;35.40;5.97;;;7.70;92.90;;;;;;5088580;28;20424;-91
2023/01/13 01:56:04;;;;;;;31.48;5.53;;;7.70;93.00;;;;;;5089036;28;20593;-88
2023/01/13 01:58:40;;;;;;;36.33;7.28;;;7.70;92.80;;;;;;5105810;28;20408;-89
2023/01/13 02:01:07;;;;;;;36.60;6.30;;;7.80;92.90;;;;;;5105004;28;20676;-89
2023/01/13 02:03:36;;;;;;;31.63;5.95;;;7.80;93.00;;;;;;5089033;28;20475;-89
2023/01/13 02:06:02;;;;;;;35.53;6.18;;;7.80;92.80;;;;;;5088665;28;20767;-91
2023/01/13 02:08:28;;;;;;;28.70;5.27;;;7.80;93.00;;;;;;5106466;28;20396;-90
2023/01/13 02:10:53;;;;;;;31.13;5.63;;;7.90;92.70;;;;;;5088187;28;20400;-90
2023/01/13 02:13:21;;;;;;;37.47;6.37;;;7.90;92.60;;;;;;5088834;28;20388;-92
2023/01/13 02:15:52;;;;;;;32.53;5.72;;;8.00;92.50;;;;;;5089035;28;20869;-88
2023/01/13 02:18:39;;;;;;;38.13;6.35;;;8.00;92.40;;;;;;5088331;28;20497;-89
2023/01/13 02:21:18;;;;;;;34.77;6.27;;;8.10;92.40;;;;;;5088619;28;20440;-90
2023/01/13 02:27:22;;;;;;;29.73;5.22;;;8.10;92.60;;;;;;5104722;28;20400;-90
2023/01/13 02:33:30;;;;;;;34.70;6.38;;;8.10;92.40;;;;;;5046550;28;20408;-89
2023/01/13 02:36:29;;;;;;;29.30;6.05;;;8.00;92.70;;;;;;5029706;28;20894;-88
2023/01/13 02:39:03;;;;;;;38.65;6.65;;;7.90;92.80;;;;;;5085316;28;20407;-89
2023/01/13 02:44:43;;;;;;;31.00;5.32;;;8.00;93.20;;;;;;5104796;28;20916;-91
2023/01/13 02:47:21;;;;;;;34.10;5.90;;;8.00;93.20;;;;;;5088423;28;20530;-90
2023/01/13 02:50:09;;;;;;;31.05;5.38;;;8.10;93.30;;;;;;5104045;28;20400;-91
2023/01/13 02:52:39;;;;;;;39.47;6.75;;;8.10;93.20;;;;;;5087666;28;20432;-91
2023/01/13 02:55:14;;;;;;;33.72;6.05;;;8.10;93.20;;;;;;5088203;28;20420;-90
2023/01/13 02:57:42;;;;;;;33.17;5.93;;;8.10;93.20;;;;;;5104348;28;20450;-88
2023/01/13 03:00:11;;;;;;;36.42;6.90;;;8.20;93.10;;;;;;5088220;28;20784;-89
2023/01/13 03:02:37;;;;;;;36.65;6.65;;;8.20;93.00;;;;;;5103893;28;20392;-90
2023/01/13 03:05:04;;;;;;;33.78;6.38;;;8.20;92.90;;;;;;5105180;28;20406;-89
2023/01/13 03:07:57;;;;;;;34.33;5.82;;;8.30;92.90;;;;;;5087193;28;20389;-89
2023/01/13 03:10:33;;;;;;;34.40;5.90;;;8.30;92.80;;;;;;5103942;28;20416;-90
2023/01/13 03:13:13;;;;;;;34.60;6.35;;;8.40;92.90;;;;;;5104795;28;20431;-90
2023/01/13 03:15:41;;;;;;;30.30;5.50;;;8.40;92.80;;;;;;5086781;28;20945;-89
2023/01/13 03:18:22;;;;;;;29.73;5.05;;;8.40;92.90;;;;;;5104936;28;20404;-90
2023/01/13 03:21:18;;;;;;;32.07;5.07;;;8.40;92.60;;;;;;5087252;28;20412;-89
2023/01/13 03:24:12;;;;;;;32.33;5.53;;;8.50;92.70;;;;;;5086586;28;20481;-90
2023/01/13 03:26:55;;;;;;;32.22;5.20;;;8.50;92.60;;;;;;5087312;28;20449;-90
2023/01/13 03:29:25;;;;;;;28.77;5.65;;;8.50;92.60;;;;;;5087394;28;20399;-87
2023/01/13 03:32:02;;;;;;;31.55;5.50;;;8.50;92.60;;;;;;5104117;28;20906;-89
2023/01/13 03:34:36;;;;;;;28.60;4.73;;;8.50;92.40;;;;;;5087194;28;20429;-89
2023/01/13 03:37:04;;;;;;;28.27;5.53;;;8.60;92.50;;;;;;5102932;28;20400;-91
2023/01/13 03:39:38;;;;;;;30.13;5.25;;;8.60;92.60;;;;;;5104062;28;20404;-91
2023/01/13 03:42:09;;;;;;;28.60;5.10;;;8.30;92.70;;;;;;5086870;28;20396;-88
2023/01/13 03:44:54;;;;;;;31.60;5.43;;;8.30;92.90;;;;;;5086509;28;20431;-88
2023/01/13 03:47:38;;;;;;;30.43;5.70;;;8.30;93.10;;;;;;5087674;28;20392;-89
2023/01/13 03:50:16;;;;;;;30.27;5.67;;;8.30;93.10;;;;;;5086168;28;20499;-89
2023/01/13 03:52:56;;;;;;;31.23;4.97;;;8.40;93.20;;;;;;5087210;28;20448;-90
2023/01/13 03:55:32;;;;;;;34.97;5.53;;;8.30;93.30;;;;;;5086763;28;20412;-89
2023/01/13 03:58:20;;;;;;;32.40;5.28;;;8.30;93.30;;;;;;5081689;28;20469;-90
2023/01/13 04:00:56;;;;;;;30.07;4.83;;;8.30;93.30;;;;;;5103783;28;20443;-88
2023/01/13 04:03:30;;;;;;;30.33;6.05;;;8.20;93.20;;;;;;5086327;28;20419;-90
2023/01/13 04:06:06;;;;;;;28.87;5.10;;;8.20;93.30;;;;;;5086924;28;20890;-89
2023/01/13 04:08:35;;;;;;;32.83;5.93;;;8.30;93.30;;;;;;5087090;28;20404;-90
2023/01/13 04:11:11;;;;;;;29.98;5.32;;;8.30;93.30;;;;;;5087080;28;20432;-91
2023/01/13 04:13:40;;;;;;;33.33;5.38;;;8.30;93.20;;;;;;5086619;28;20445;-91
2023/01/13 04:16:07;;;;;;;33.88;5.25;;;8.30;93.20;;;;;;5086081;28;20393;-90
2023/01/13 04:18:36;;;;;;;29.48;5.30;;;8.30;92.90;;;;;;5104126;28;20415;-88
2023/01/13 04:21:03;;;;;;;27.05;5.05;;;8.30;92.90;;;;;;5086126;28;21087;-90
2023/01/13 04:23:29;;;;;;;28.73;4.93;;;8.30;92.70;;;;;;5087117;28;20439;-89
2023/01/13 04:25:55;;;;;;;31.00;5.63;;;8.40;92.70;;;;;;5103875;28;20396;-89
2023/01/13 04:28:21;;;;;;;29.10;5.10;;;8.40;92.70;;;;;;5086116;28;20445;-90
2023/01/13 04:30:47;;;;;;;30.58;5.68;;;8.40;92.80;;;;;;5103744;28;20407;-89
2023/01/13 04:33:14;;;;;;;30.02;4.72;;;8.40;92.60;;;;;;5102919;28;20396;-90
2023/01/13 04:35:40;;;;;;;29.70;4.90;;;8.40;92.50;;;;;;5087009;28;20391;-91
2023/01/13 04:38:14;;;;;;;29.02;5.22;;;8.50;92.40;;;;;;5086062;28;20408;-91
2023/01/13 04:40:41;;;;;;;30.02;5.35;;;8.50;92.20;;;;;;5086798;28;20408;-91
2023/01/13 04:43:07;;;;;;;25.50;4.95;;;8.50;92.10;;;;;;5086607;28;20448;-90
2023/01/13 04:45:33;;;;;;;27.90;4.90;;;8.50;92.30;;;;;;5087693;28;20808;-90
2023/01/13 04:47:59;;;;;;;28.35;5.38;;;8.50;91.90;;;;;;5090671;28;20491;-91
2023/01/13 04:50:24;;;;;;;26.88;4.45;;;8.70;92.20;;;;;;5089448;28;20521;-90
2023/01/13 04:52:52;;;;;;;29.13;4.70;;;8.70;91.60;;;;;;5090230;28;20424;-89
2023/01/13 04:55:19;;;;;;;25.98;4.47;;;8.60;91.40;;;;;;5106225;28;20768;-89
2023/01/13 04:57:45;;;;;;;21.55;3.55;;;8.60;91.30;;;;;;5090590;28;20392;-90
2023/01/13 05:00:12;;;;;;;25.23;3.88;;;8.80;91.10;;;;;;5089702;28;20829;-90
2023/01/13 05:02:38;;;;;;;29.25;4.82;;;8.60;90.90;;;;;;5089452;28;20400;-89
2023/01/13 05:05:04;;;;;;;23.40;4.73;;;8.60;91.00;;;;;;5090221;28;20411;-93
2023/01/13 05:07:30;;;;;;;24.90;4.00;;;8.60;91.10;;;;;;5088996;28;20424;-90
2023/01/13 05:09:56;;;;;;;26.67;4.13;;;8.60;90.90;;;;;;5090151;28;20411;-88
2023/01/13 05:17:51;;;;;;;23.55;3.85;;;8.60;90.30;;;;;;5107004;28;20870;-91
2023/01/13 05:20:17;;;;;;;24.77;4.15;;;8.60;90.80;;;;;;5088875;28;20497;-87
2023/01/13 05:25:27;;;;;;;24.00;4.32;;;8.60;90.20;;;;;;5105728;28;20401;-91
2023/01/13 05:27:55;;;;;;;19.77;4.07;;;8.70;90.20;;;;;;5089562;28;20967;-87
2023/01/13 05:30:23;;;;;;;20.58;4.22;;;8.70;90.50;;;;;;5105997;28;20400;-90
2023/01/13 05:32:49;;;;;;;23.50;3.85;;;8.70;90.10;;;;;;5089479;28;20740;-90
2023/01/13 05:35:15;;;;;;;22.88;3.50;;;8.70;90.20;;;;;;5089945;28;20419;-90
2023/01/13 05:37:42;;;;;;;25.75;4.30;;;8.70;90.00;;;;;;5088493;28;20396;-91
2023/01/13 05:43:23;;;;;;;18.23;3.28;;;8.70;90.10;;;;;;5105634;28;20413;-90
2023/01/13 05:45:52;;;;;;;24.70;4.00;;;8.70;90.00;;;;;;5105640;28;20597;-90
2023/01/13 05:48:19;;;;;;;20.55;3.80;;;8.70;90.00;;;;;;5089589;28;20440;-90
2023/01/13 05:50:46;;;;;;;25.88;3.70;;;8.70;90.20;;;;;;5105588;28;20400;-89
2023/01/13 05:53:12;;;;;;;23.50;3.67;;;8.70;90.50;;;;;;5106486;28;20752;-91
2023/01/13 05:55:39;;;;;;;21.13;4.03;;;8.70;90.40;;;;;;5088003;28;20698;-89
2023/01/13 05:58:06;;;;;;;22.55;3.72;;;8.70;90.60;;;;;;5089457;28;20759;-90
2023/01/13 06:00:32;;;;;;;19.85;2.83;;;8.70;90.50;;;;;;5088791;28;20399;-90
2023/01/13 06:02:58;;;;;;;24.77;3.90;;;8.80;90.80;;;;;;5088825;28;20418;-88
2023/01/13 06:05:23;;;;;;;26.77;4.40;;;8.80;91.00;;;;;;5106193;28;20993;-88
2023/01/13 06:07:49;;;;;;;22.90;3.83;;;8.70;91.50;;;;;;5087661;28;20895;-89
2023/01/13 06:10:16;;;;;;;19.93;3.73;;;8.80;91.80;;;;;;5088943;28;20404;-89
2023/01/13 06:12:41;;;;;;;24.48;3.92;;;8.60;91.80;;;;;;5088236;28;20392;-90
2023/01/13 06:15:07;;;;;;;23.50;3.65;;;8.90;91.70;;;;;;5105767;28;20424;-90
2023/01/13 06:17:33;;;;;;;23.05;3.70;;;8.50;91.70;;;;;;5087889;28;20435;-90
2023/01/13 06:19:59;;;;;;;22.70;3.67;;;8.70;91.80;;;;;;5089117;28;20425;-88
2023/01/13 06:22:29;;;;;;;18.53;3.47;;;8.50;91.60;;;;;;5088696;28;20392;-90
2023/01/13 06:24:55;;;;;;;22.70;3.53;;;8.50;91.60;;;;;;5088059;28;20415;-90
2023/01/13 06:27:21;;;;;;;20.07;3.23;;;8.50;91.40;;;;;;5089115;28;20396;-92
2023/01/13 06:29:47;;;;;;;23.08;3.38;;;8.50;91.30;;;;;;5088523;28;20798;-89
2023/01/13 06:32:28;;;;;;;22.63;3.60;;;8.50;91.60;;;;;;5088652;28;20481;-90
2023/01/13 06:35:05;;;;;;;20.77;3.80;;;8.50;91.70;;;;;;5104730;28;21089;-91
2023/01/13 06:37:33;;;;;;;21.33;3.45;;;8.40;92.00;;;;;;5105523;28;20405;-90
2023/01/13 06:40:02;;;;;;;22.27;3.20;;;8.40;91.90;;;;;;5088035;28;20474;-90
2023/01/13 06:45:16;;;;;;;24.30;3.60;;;8.30;92.80;;;;;;5105057;28;20495;-90
2023/01/13 06:47:42;;;;;;;23.58;3.28;;;8.30;93.00;;;;;;5087034;28;20489;-88
2023/01/13 06:50:09;;;;;;;22.53;3.50;;;8.20;93.80;;;;;;5088292;28;20998;-92
2023/01/13 06:52:34;;;;;;;22.30;3.28;;;8.10;94.00;;;;;;5104533;28;20466;-88
2023/01/13 06:55:00;;;;;;;22.50;3.37;;;8.30;94.30;;;;;;5087679;28;20420;-91
2023/01/13 06:57:26;;;;;;;20.15;2.90;;;8.00;94.60;;;;;;5105142;28;20442;-90
2023/01/13 06:59:51;;;;;;;24.95;3.55;;;7.90;94.80;;;;;;5103009;28;20393;-88
2023/01/13 07:02:17;;;;;;;22.85;3.28;;;8.10;95.40;;;;;;5087146;28;20411;-91
2023/01/13 07:04:44;;;;;;;25.90;4.50;;;7.90;95.40;;;;;;5086414;28;20408;-90
2023/01/13 07:07:11;;;;;;;22.90;3.78;;;7.70;95.60;;;;;;5086170;28;20400;-89
2023/01/13 07:09:36;;;;;;;24.33;3.55;;;7.60;95.70;;;;;;5103848;28;20967;-91
2023/01/13 07:12:02;;;;;;;28.70;3.83;;;7.70;95.70;;;;;;5086933;28;20407;-88
2023/01/13 07:17:12;;;;;;;23.52;3.33;;;7.60;95.50;;;;;;5103717;28;20401;-89
2023/01/13 07:19:37;;;;;;;24.67;4.03;;;7.60;95.60;;;;;;5088052;28;20401;-92
2023/01/13 07:22:03;;;;;;;25.40;3.73;;;7.60;95.50;;;;;;5087207;28;20412;-89
2023/01/13 07:24:29;;;;;;;24.58;4.45;;;7.40;95.50;;;;;;5088041;28;20481;-90
2023/01/13 07:26:54;;;;;;;26.40;4.20;;;7.60;95.60;;;;;;5086963;28;20414;-88
2023/01/13 07:29:20;;;;;;;21.80;2.60;;;7.60;95.50;;;;;;5087801;28;20408;-89
2023/01/13 07:31:46;;;;;;;20.00;3.30;;;7.60;95.30;;;;;;5087330;28;20392;-90
2023/01/13 07:34:11;;;;;;;22.45;3.28;;;7.60;95.20;;;;;;5086867;28;20458;-89
2023/01/13 07:36:38;;;;;;;20.17;3.23;;;7.60;94.90;;;;;;5087611;28;20428;-90
2023/01/13 07:39:04;;;;;;;21.15;3.85;;;7.70;94.80;;;;;;5086481;28;20787;-91
2023/01/13 07:44:14;;;;;;;23.07;4.20;;;7.80;94.70;;;;;;5104879;28;20891;-89
2023/01/13 07:46:40;;;;;;;26.13;4.10;;;7.80;94.40;;;;;;5090455;27;20456;-89
2023/01/13 07:49:05;;;;;;;26.00;3.50;;;7.80;94.60;;;;;;5090766;28;20398;-89
2023/01/13 07:51:35;;;;;;;24.35;4.05;;;7.80;94.50;;;;;;5106837;28;20478;-90
2023/01/13 07:54:00;;;;;;;22.60;3.90;;;8.00;94.40;;;;;;5090684;27;20505;-90
2023/01/13 07:56:26;;;;;;;25.73;4.00;;;7.90;94.30;;;;;;5106771;28;20490;-89
2023/01/13 07:58:52;;;;;;;25.38;4.50;;;7.90;94.10;;;;;;5107880;28;20394;-91
2023/01/13 08:01:18;;;;;;;27.37;4.47;;;8.00;94.10;;;;;;5089615;28;20406;-91
2023/01/13 08:03:44;;;;;;;25.45;3.85;;;8.00;94.10;;;;;;5090636;28;20513;-90
2023/01/13 08:06:10;;;;;;;23.13;3.57;;;8.00;93.80;;;;;;5106739;28;20450;-91
2023/01/13 08:08:36;;;;;;;20.42;3.83;;;8.00;93.90;;;;;;5106822;28;20406;-88
2023/01/13 08:11:05;;;;;;;25.02;4.45;;;8.10;93.80;;;;;;5090320;28;20445;-89
2023/01/13 08:13:31;;;;;;;23.63;3.70;;;8.10;93.70;;;;;;5089452;28;20402;-90
2023/01/13 08:16:03;;;;;;;23.67;3.63;;;8.10;93.70;;;;;;5090700;28;20559;-92
2023/01/13 08:18:30;;;;;;;27.05;4.25;;;8.10;93.40;;;;;;5090057;27;20917;-88
2023/01/13 08:21:01;;;;;;;23.85;4.10;;;8.10;93.40;;;;;;5094644;27;20782;-90
2023/01/13 08:23:27;;;;;;;23.48;3.95;;;8.20;93.50;;;;;;5094401;27;20490;-90
2023/01/13 08:25:52;;;;;;;24.23;3.83;;;8.20;93.50;;;;;;5110930;27;20485;-91
2023/01/13 08:28:18;;;;;;;23.95;4.28;;;8.20;93.10;;;;;;5094788;27;20413;-88
2023/01/13 08:30:43;;;;;;;25.97;4.70;;;8.30;92.90;;;;;;5110833;27;20486;-89
2023/01/13 08:33:10;;;;;;;21.03;3.80;;;8.30;92.90;;;;;;5111169;27;20402;-89
2023/01/13 08:35:37;;;;;;;24.77;4.85;;;8.30;93.00;;;;;;5092661;27;20947;-89
2023/01/13 08:38:04;;;;;;;23.98;3.90;;;8.30;93.10;;;;;;5110984;27;20485;-90
2023/01/13 08:40:29;;;;;;;24.02;4.40;;;8.30;93.30;;;;;;5093387;27;20440;-92
2023/01/13 08:42:55;;;;;;;27.20;4.13;;;8.20;93.10;;;;;;5094065;27;20410;-89
2023/01/13 08:45:21;;;;;;;26.02;4.68;;;8.30;93.10;;;;;;5094178;27;20486;-90
2023/01/13 08:47:47;;;;;;;24.80;4.27;;;8.30;93.30;;;;;;5093191;27;20390;-91
2023/01/13 08:50:12;;;;;;;22.10;3.03;;;8.30;93.20;;;;;;5093939;27;20401;-88
2023/01/13 08:52:38;;;;;;;23.37;3.27;;;8.30;93.20;;;;;;5093656;27;20881;-89
2023/01/13 08:55:04;;;;;;;23.67;3.60;;;8.60;93.50;;;;;;5110649;27;20433;-90
2023/01/13 08:57:30;;;;;;;19.60;3.37;;;8.20;94.00;;;;;;5093341;27;20407;-89
2023/01/13 08:59:55;;;;;;;18.77;2.97;;;8.10;94.10;;;;;;5093516;27;20405;-92
2023/01/13 09:02:22;;;;;;;17.10;2.78;;;8.00;94.30;;;;;;5093232;27;20390;-90
2023/01/13 09:04:48;;;;;;;20.50;2.78;;;7.90;94.50;;;;;;5093329;27;20391;-89
2023/01/13 09:07:14;;;;;;;21.98;3.33;;;7.90;95.00;;;;;;5093773;27;20394;-88
2023/01/13 09:09:40;;;;;;;24.10;3.40;;;7.80;95.30;;;;;;5093305;27;20761;-88
2023/01/13 09:14:53;;;;;;;23.77;3.33;;;7.70;95.80;;;;;;5109703;27;20451;-88
2023/01/13 09:17:19;;;;;;;25.90;3.90;;;7.60;96.10;;;;;;5110325;27;20916;-89
2023/01/13 09:19:45;;;;;;;30.25;3.90;;;7.70;96.30;;;;;;5092651;27;20395;-91
2023/01/13 09:22:14;;;;;;;28.77;4.83;;;7.60;96.50;;;;;;5110203;27;20536;-91
2023/01/13 09:24:40;;;;;;;26.35;3.65;;;7.60;96.80;;;;;;5110646;27;20395;-90
2023/01/13 09:27:05;;;;;;;29.83;4.25;;;7.60;96.90;;;;;;5093011;27;20414;-91
2023/01/13 09:29:32;;;;;;;30.10;4.67;;;7.60;97.00;;;;;;5093348;27;20390;-92
2023/01/13 09:31:58;;;;;;;26.17;4.60;;;7.70;97.20;;;;;;5091667;27;20457;-90
2023/01/13 09:37:08;;;;;;;32.60;4.20;;;7.50;97.70;;;;;;5109757;27;20426;-90
2023/01/13 09:39:35;;;;;;;32.80;4.38;;;7.50;98.00;;;;;;5109131;27;20479;-91
2023/01/13 09:45:06;;;;;;;33.72;4.63;;;7.60;98.30;;;;;;5102411;27;20399;-92
2023/01/13 09:48:00;;;;;;;29.80;4.03;;;7.40;98.40;;;;;;5092926;27;20383;-91
2023/01/13 09:50:36;;;;;;;33.58;4.55;;;7.30;98.40;;;;;;5092881;27;20410;-91
2023/01/13 09:53:03;;;;;;;26.02;3.85;;;7.30;98.50;;;;;;5091734;27;20484;-91
2023/01/13 09:55:35;;;;;;;32.35;4.05;;;7.30;98.50;;;;;;5092541;27;20407;-91
2023/01/13 09:58:05;;;;;;;30.42;3.95;;;7.30;98.60;;;;;;5109002;27;20942;-89
2023/01/13 10:00:43;;;;;;;32.67;4.43;;;7.40;98.50;;;;;;5092752;27;20532;-90
2023/01/13 10:03:27;;;;;;;25.45;4.15;;;7.40;98.50;;;;;;5092224;27;20489;-90
2023/01/13 10:06:13;;;;;;;29.00;3.53;;;7.50;98.40;;;;;;5108601;27;20407;-90
2023/01/13 10:08:44;;;;;;;28.25;3.50;;;7.50;98.20;;;;;;5092358;27;20402;-91
2023/01/13 10:14:16;;;;;;;24.83;4.03;;;7.40;98.00;;;;;;5109163;27;20427;-90
2023/01/13 10:16:51;;;;;;;27.23;3.85;;;7.80;97.70;;;;;;5109610;27;20391;-88
2023/01/13 10:19:44;;;;;;;24.23;4.05;;;7.80;97.50;;;;;;5091261;27;20810;-90
2023/01/13 10:22:29;;;;;;;25.63;3.67;;;7.80;97.40;;;;;;5092173;27;20398;-90
2023/01/13 10:25:41;;;;;;;21.02;3.92;;;7.90;97.50;;;;;;5091301;27;20483;-89
2023/01/13 10:28:14;;;;;;;22.92;3.33;;;7.90;97.20;;;;;;5054914;27;20512;-90
2023/01/13 10:30:45;;;;;;;21.77;3.28;;;7.90;96.80;;;;;;5092318;27;20772;-90
2023/01/13 10:33:16;;;;;;;19.70;2.80;;;8.00;96.60;;;;;;5091386;27;20398;-90
2023/01/13 10:35:49;;;;;;;21.88;3.40;;;8.00;96.30;;;;;;5091754;27;20418;-91
2023/01/13 10:38:36;;;;;;;21.65;3.05;;;8.10;96.60;;;;;;5092024;27;20398;-90
2023/01/13 10:41:23;;;;;;;19.13;2.88;;;8.10;96.70;;;;;;5090951;27;20445;-90
2023/01/13 10:44:03;;;;;;;22.67;3.50;;;8.10;96.60;;;;;;5091547;27;20460;-90
2023/01/13 10:46:34;;;;;;;22.15;3.00;;;8.10;96.60;;;;;;5091439;27;20410;-90
2023/01/13 10:49:02;;;;;;;21.45;2.80;;;8.10;96.50;;;;;;5108171;27;20441;-92
2023/01/13 10:51:40;;;;;;;23.47;3.57;;;8.10;96.40;;;;;;5092259;27;20794;-92
2023/01/13 10:54:12;;;;;;;20.60;3.00;;;8.20;96.50;;;;;;5090379;27;20460;-90
2023/01/13 10:56:40;;;;;;;23.48;3.47;;;8.20;96.10;;;;;;5091897;27;20407;-91
2023/01/13 10:59:25;;;;;;;19.58;2.92;;;8.20;96.30;;;;;;5090876;27;20401;-90
2023/01/13 11:02:10;;;;;;;21.45;2.75;;;8.20;96.20;;;;;;5090946;27;20441;-89
2023/01/13 11:04:56;;;;;;;22.85;3.75;;;8.10;96.10;;;;;;5091330;27;20465;-91
2023/01/13 11:07:40;;;;;;;21.10;3.33;;;8.10;96.20;;;;;;5107612;27;20834;-90
2023/01/13 11:10:08;;;;;;;21.00;3.40;;;8.20;96.40;;;;;;5085144;27;20433;-91
2023/01/13 11:12:44;;;;;;;25.17;3.38;;;8.20;96.40;;;;;;5091187;27;20411;-91
2023/01/13 11:15:17;;;;;;;18.95;2.67;;;8.20;96.50;;;;;;5090317;27;20770;-92
2023/01/13 11:17:52;;;;;;;20.50;3.60;;;8.30;96.00;;;;;;5091271;27;20474;-90
2023/01/13 11:20:31;;;;;;;18.45;2.65;;;8.30;95.70;;;;;;5107411;27;20401;-90
2023/01/13 11:23:01;;;;;;;18.87;2.60;;;8.40;95.80;;;;;;5091455;27;20906;-90
2023/01/13 11:25:40;;;;;;;19.05;2.83;;;8.40;95.10;;;;;;5090295;27;20435;-89
2023/01/13 11:28:38;;;;;;;18.48;2.55;;;8.50;95.00;;;;;;5090466;27;20452;-90
2023/01/13 11:31:24;;;;;;;17.90;2.40;;;8.50;94.70;;;;;;5091337;27;20407;-91
2023/01/13 11:34:06;;;;;;;18.10;2.60;;;8.60;94.70;;;;;;5092779;27;20427;-89
2023/01/13 11:36:52;;;;;;;17.73;2.45;;;8.60;94.50;;;;;;5090758;27;20511;-90
2023/01/13 11:39:37;;;;;;;16.40;2.47;;;8.60;94.20;;;;;;5090857;27;20413;-88
2023/01/13 11:42:21;;;;;;;18.37;2.70;;;8.60;94.40;;;;;;5107080;27;20467;-91
2023/01/13 11:45:06;;;;;;;16.65;2.20;;;8.70;94.70;;;;;;5090224;27;20415;-91
2023/01/13 11:47:34;;;;;;;15.73;2.22;;;8.60;94.70;;;;;;5091374;27;20823;-90
2023/01/13 11:50:00;;;;;;;18.67;2.50;;;8.60;94.70;;;;;;5090034;27;20404;-89
2023/01/13 11:52:44;;;;;;;15.67;2.60;;;8.60;94.40;;;;;;5090740;27;20391;-91
2023/01/13 11:55:29;;;;;;;16.45;2.15;;;8.60;94.40;;;;;;5106092;28;20943;-90
2023/01/13 11:58:19;;;;;;;19.15;3.00;;;8.60;94.20;;;;;;5090483;28;20410;-92
2023/01/13 12:01:01;;;;;;;19.27;2.53;;;8.70;94.40;;;;;;5091233;28;20419;-92
2023/01/13 12:03:34;;;;;;;17.57;2.63;;;8.70;94.20;;;;;;5106831;28;20410;-89
2023/01/13 12:06:15;;;;;;;12.37;2.17;;;8.80;94.20;;;;;;5107708;28;20407;-92
2023/01/13 12:08:52;;;;;;;17.45;2.05;;;8.90;93.70;;;;;;5106779;28;20501;-90
2023/01/13 12:12:17;;;;;;;16.15;2.75;;;9.00;93.70;;;;;;5090121;28;20750;-89
2023/01/13 12:14:44;;;;;;;12.85;1.98;;;9.10;93.20;;;;;;5107450;28;20426;-89
2023/01/13 12:17:30;;;;;;;14.00;2.43;;;9.20;93.10;;;;;;5090288;28;20401;-89
2023/01/13 12:19:56;;;;;;;13.23;2.13;;;9.30;92.90;;;;;;5089438;28;20463;-92
2023/01/13 12:22:28;;;;;;;11.77;1.80;;;9.30;92.80;;;;;;5107588;28;20391;-91
2023/01/13 12:25:10;;;;;;;13.98;1.80;;;9.60;92.90;;;;;;5089957;28;20446;-91
2023/01/13 12:27:48;;;;;;;18.10;2.53;;;9.70;92.40;;;;;;5107830;28;20411;-90
2023/01/13 12:30:35;;;;;;;15.83;2.17;;;9.80;92.00;;;;;;5106955;28;20399;-92
2023/01/13 12:33:23;;;;;;;15.10;2.15;;;9.70;92.00;;;;;;5089583;28;20897;-89
2023/01/13 12:36:07;;;;;;;13.70;1.90;;;9.50;91.90;;;;;;5083875;28;20422;-88
2023/01/13 12:38:44;;;;;;;16.30;2.22;;;9.30;91.80;;;;;;5089077;28;20403;-89
2023/01/13 12:41:35;;;;;;;15.18;2.00;;;9.40;92.20;;;;;;5090424;28;20770;-91
2023/01/13 12:44:19;;;;;;;14.35;2.17;;;9.40;92.00;;;;;;5090600;28;20406;-91
2023/01/13 12:46:54;;;;;;;13.30;1.92;;;9.50;92.30;;;;;;5089440;28;20459;-90
2023/01/13 12:49:24;;;;;;;13.37;1.90;;;9.80;92.00;;;;;;5090300;28;20395;-89
2023/01/13 12:51:55;;;;;;;11.18;1.42;;;9.80;91.50;;;;;;5106802;28;20438;-91
2023/01/13 12:54:36;;;;;;;15.10;1.92;;;9.80;91.50;;;;;;5089729;28;20483;-91
2023/01/13 12:57:20;;;;;;;10.50;1.55;;;9.70;91.50;;;;;;5090204;28;20410;-90
2023/01/13 12:59:58;;;;;;;13.43;1.55;;;9.60;91.70;;;;;;5106586;28;20458;-90
2023/01/13 13:03:04;;;;;;;14.15;2.08;;;9.60;91.50;;;;;;5090428;28;20398;-92
2023/01/13 13:05:40;;;;;;;11.40;1.73;;;9.50;92.40;;;;;;5090221;27;20398;-90
2023/01/13 13:08:18;;;;;;;13.65;1.20;;;9.40;92.30;;;;;;5093083;27;20403;-91
2023/01/13 13:11:00;;;;;;;12.57;1.60;;;9.70;92.30;;;;;;5094193;27;20410;-89
2023/01/13 13:13:45;;;;;;;15.25;1.80;;;9.40;92.10;;;;;;5093120;27;20486;-91
2023/01/13 13:16:36;;;;;;;12.95;1.80;;;9.40;92.20;;;;;;5092937;27;20402;-91
2023/01/13 13:19:31;;;;;;;15.05;1.95;;;9.30;93.20;;;;;;5093593;27;20403;-89
2023/01/13 13:22:12;;;;;;;16.58;2.08;;;9.10;93.60;;;;;;5070881;27;20410;-91
2023/01/13 13:25:02;;;;;;;18.23;1.98;;;9.00;93.80;;;;;;5093016;27;20411;-90
2023/01/13 13:27:30;;;;;;;16.55;2.30;;;9.00;94.30;;;;;;5096742;27;20757;-91
2023/01/13 13:29:56;;;;;;;13.90;1.77;;;8.90;94.30;;;;;;5109904;27;20421;-93
2023/01/13 13:33:03;;;;;;;13.67;1.80;;;8.90;94.40;;;;;;5093044;27;20964;-92
2023/01/13 13:35:53;;;;;;;15.55;2.10;;;8.90;93.70;;;;;;5081977;27;20426;-90
2023/01/13 13:47:20;;;;;;;13.80;1.42;;;9.00;93.00;;;;;;5109213;27;20475;-89
2023/01/13 13:49:51;;;;;;;14.63;2.20;;;9.00;92.90;;;;;;5093207;27;20898;-90
2023/01/13 13:52:28;;;;;;;11.75;1.98;;;9.00;93.40;;;;;;5092176;27;20391;-91
2023/01/13 13:54:57;;;;;;;11.73;1.55;;;9.00;93.10;;;;;;5092420;27;20423;-90
2023/01/13 13:57:36;;;;;;;14.00;1.85;;;9.00;93.50;;;;;;5093249;27;20402;-90
2023/01/13 14:00:25;;;;;;;12.30;1.63;;;8.90;93.50;;;;;;5092189;27;20469;-89
2023/01/13 14:03:04;;;;;;;15.90;1.88;;;8.90;93.10;;;;;;5092869;27;20460;-87
2023/01/13 14:05:30;;;;;;;11.15;1.67;;;8.90;93.00;;;;;;5108937;27;20423;-89
2023/01/13 14:08:14;;;;;;;15.25;1.92;;;8.90;93.10;;;;;;5092067;27;21011;-90